»·PEaware :: N145TB KSBA-KSNA

N145TB :: KSBA-KSNA

FLIGHT INFORMATION

Flight Status: Arrived
Operator: Privately registered:
United States
More flights under this callsign
Pilot: Adam K. (2650)
Aircraft: SOCATA TBM-900
(TBM9)
More flights by this aircraft type
Origin: KSBA Santa Barbara Mun
United States
Destination: KSNA John Wayne-Orange Co
United States
More flights between these airports :: More routes between these airports
Route: +KWANG VTU V208 SXC SLI
File this flight plan on PilotEdge
Remarks: SBAP8
Altitude:
(Current/Filed)
9,000ft
Speed:
(Current/Filed)
264kts
Departed: 27-Nov-19 01:30 PM
Arrived: 27-Nov-19 02:09 PM
Distance/Time
Traveled:
108nm/0:39
Distance/Time
To Go:
Arrived

Flight Plot

Page will automatically refresh every two minutes.


Map Options




Map Legend


Flown Route
Filed Route
Departure Airport
Arrival Airport
Navaid (VOR, NDB)
Fix

Horizontal Profiles

Position Reports

Time Latitude Longitude Heading Altitude Ground
Speed
27-Nov-19 12:57 34.429878 -119.843262 243 14ft 0kts
27-Nov-19 12:58 34.429878 -119.843262 242 13ft 0kts
27-Nov-19 12:59 34.429878 -119.843262 242 13ft 0kts
27-Nov-19 13:00 34.429878 -119.843262 242 13ft 0kts
27-Nov-19 13:01 34.429878 -119.843262 242 13ft 0kts
27-Nov-19 13:04 34.432568 -119.835098 71 13ft 0kts
27-Nov-19 13:05 34.432568 -119.835098 71 13ft 0kts
27-Nov-19 13:06 34.432568 -119.835098 71 13ft 0kts
27-Nov-19 13:07 34.432568 -119.835098 71 13ft 0kts
27-Nov-19 13:08 34.432568 -119.835098 71 13ft 0kts
27-Nov-19 13:09 34.432568 -119.835098 71 13ft 0kts
27-Nov-19 13:10 34.432568 -119.835098 71 13ft 0kts
27-Nov-19 13:11 34.432568 -119.835098 71 13ft 0kts
27-Nov-19 13:12 34.432568 -119.835098 71 13ft 0kts
27-Nov-19 13:13 34.432568 -119.835098 71 13ft 0kts
27-Nov-19 13:14 34.432568 -119.835098 71 13ft 0kts
27-Nov-19 13:15 34.432568 -119.835098 71 13ft 0kts
27-Nov-19 13:16 34.432568 -119.835098 71 13ft 0kts
27-Nov-19 13:17 34.432568 -119.835098 71 13ft 0kts
27-Nov-19 13:18 34.432568 -119.835098 71 13ft 0kts
27-Nov-19 13:19 34.432568 -119.835098 71 13ft 0kts
27-Nov-19 13:20 34.432568 -119.835098 71 13ft 0kts
27-Nov-19 13:21 34.432568 -119.835098 71 13ft 0kts
27-Nov-19 13:22 34.432568 -119.835098 71 13ft 0kts
27-Nov-19 13:23 34.432606 -119.834990 77 13ft 2kts
27-Nov-19 13:24 34.431011 -119.835343 179 12ft 14kts
27-Nov-19 13:25 34.428716 -119.834701 182 10ft 0kts
27-Nov-19 13:26 34.428716 -119.834701 182 10ft 0kts
27-Nov-19 13:27 34.428716 -119.834701 182 10ft 0kts
27-Nov-19 13:28 34.427894 -119.835277 267 10ft 0kts
27-Nov-19 13:29 34.426837 -119.867224 267 1927ft 117kts
27-Nov-19 13:30 34.415060 -119.909413 188 3848ft 172kts
27-Nov-19 13:31 34.379110 -119.880774 152 7025ft 151kts
27-Nov-19 13:32 34.337471 -119.842863 152 8034ft 227kts
27-Nov-19 13:33 34.281607 -119.795711 152 8003ft 243kts
27-Nov-19 13:34 34.226660 -119.744464 132 8062ft 253kts
27-Nov-19 13:35 34.187223 -119.677650 133 9020ft 256kts
27-Nov-19 13:36 34.142520 -119.602267 132 9009ft 275kts
27-Nov-19 13:37 34.095257 -119.522811 132 9011ft 278kts
27-Nov-19 13:38 34.048200 -119.443902 132 9011ft 278kts
27-Nov-19 13:39 34.001322 -119.365467 132 9011ft 278kts
27-Nov-19 13:40 33.955713 -119.289318 133 9022ft 276kts
27-Nov-19 13:41 33.908547 -119.210699 133 9024ft 277kts
27-Nov-19 13:42 33.861496 -119.132528 133 9029ft 279kts
27-Nov-19 13:43 33.814417 -119.054434 133 9028ft 279kts
27-Nov-19 13:44 33.765585 -118.978915 137 9029ft 277kts
27-Nov-19 13:45 33.714956 -118.905788 141 9030ft 271kts
27-Nov-19 13:46 33.666224 -118.835876 141 9030ft 268kts
27-Nov-19 13:47 33.618604 -118.767531 141 9030ft 268kts
27-Nov-19 13:48 33.570766 -118.698978 140 9029ft 261kts
27-Nov-19 13:49 33.523810 -118.631826 140 9030ft 259kts
27-Nov-19 13:50 33.477246 -118.565362 140 9030ft 258kts
27-Nov-19 13:51 33.430602 -118.498899 140 9030ft 258kts
27-Nov-19 13:52 33.386750 -118.428910 110 9001ft 286kts
27-Nov-19 13:53 33.439486 -118.358126 32 9027ft 313kts
27-Nov-19 13:54 33.507892 -118.287926 41 7727ft 324kts
27-Nov-19 13:55 33.572267 -118.217761 41 5935ft 305kts
27-Nov-19 13:56 33.632435 -118.151779 41 4971ft 269kts
27-Nov-19 13:57 33.688682 -118.090881 41 4992ft 274kts
27-Nov-19 13:58 33.746248 -118.030345 41 4984ft 259kts
27-Nov-19 13:59 33.797521 -117.979620 41 4985ft 228kts
27-Nov-19 14:01 33.848876 -117.931509 41 3955ft 230kts
27-Nov-19 14:02 33.879348 -117.873358 71 2985ft 192kts
27-Nov-19 14:03 33.886316 -117.817019 91 3005ft 170kts
27-Nov-19 14:04 33.855849 -117.795865 181 2978ft 166kts
27-Nov-19 14:05 33.811234 -117.797879 176 2989ft 160kts
27-Nov-19 14:06 33.767456 -117.810659 202 2585ft 172kts
27-Nov-19 14:07 33.724831 -117.837689 203 1027ft 172kts
27-Nov-19 14:08 33.695054 -117.856575 200 389ft 81kts
27-Nov-19 14:09 33.676102 -117.868566 208 59ft 32kts
27-Nov-19 14:10 33.676002 -117.869780 303 59ft 0kts
27-Nov-19 14:11 33.676013 -117.869801 299 59ft 0kts
27-Nov-19 14:12 33.674166 -117.871280 209 59ft 15kts
27-Nov-19 14:13 33.672831 -117.872864 208 59ft 0kts
27-Nov-19 14:14 33.672830 -117.872864 208 59ft 0kts
27-Nov-19 14:15 33.672830 -117.872864 208 59ft 0kts
27-Nov-19 14:16 33.672831 -117.872864 207 59ft 0kts
27-Nov-19 14:17 33.672831 -117.872864 207 59ft 0kts

Navigation Log

Ident Type
Flight plan parsing failed, navigation log unavailable